Time;durP1;ratioP1;P1;durP2;ratioP2;P2;SDS_P1;SDS_P2;PMS_P1;PMS_P2;Temp;Humidity;BMP_temperature;BMP_pressure;BME280_temperature;BME280_humidity;BME280_pressure;Samples;Min_cycle;Max_cycle;Signal;HPM_P1;HPM_P2
2022/07/14 00:12:06;;;;;;;3.85;1.05;;;24.20;57.40;;;;;;2204779;26;20112;-71
2022/07/14 00:14:32;;;;;;;2.67;0.80;;;24.20;57.40;;;;;;4490469;31;20076;-71
2022/07/14 00:16:58;;;;;;;3.20;1.00;;;24.20;57.40;;;;;;4476981;31;20065;-71
2022/07/14 00:19:23;;;;;;;4.05;1.00;;;24.20;57.40;;;;;;4490032;31;20073;-71
2022/07/14 00:21:49;;;;;;;3.25;0.70;;;24.20;57.40;;;;;;4491010;31;20162;-70
2022/07/14 00:24:15;;;;;;;3.75;0.90;;;24.20;57.40;;;;;;4491320;31;20120;-70
2022/07/14 00:26:41;;;;;;;5.10;1.00;;;24.20;57.50;;;;;;4491420;31;20124;-70
2022/07/14 00:29:07;;;;;;;3.35;1.05;;;24.20;57.50;;;;;;4491544;31;20214;-70
2022/07/14 00:31:34;;;;;;;4.15;0.90;;;24.20;57.50;;;;;;4491167;31;20159;-71
2022/07/14 00:34:01;;;;;;;3.40;0.90;;;24.20;57.50;;;;;;4491445;31;20084;-71
2022/07/14 00:36:27;;;;;;;2.45;1.00;;;24.20;57.60;;;;;;4491218;31;20414;-70
2022/07/14 00:38:54;;;;;;;2.90;1.25;;;24.20;57.60;;;;;;4491312;32;20077;-71
2022/07/14 00:41:19;;;;;;;5.15;1.13;;;24.20;57.70;;;;;;4491186;32;20507;-71
2022/07/14 00:43:45;;;;;;;2.90;0.93;;;24.20;57.70;;;;;;4491250;32;20170;-70
2022/07/14 00:46:11;;;;;;;3.80;0.82;;;24.10;57.60;;;;;;4491058;32;20096;-70
2022/07/14 00:48:37;;;;;;;2.42;0.73;;;24.10;57.70;;;;;;4490918;32;20061;-71
2022/07/14 00:51:03;;;;;;;2.35;0.70;;;24.10;57.70;;;;;;4491333;31;20210;-70
2022/07/14 00:53:29;;;;;;;3.70;0.90;;;24.10;57.70;;;;;;4494335;31;20069;-71
2022/07/14 00:55:55;;;;;;;1.90;0.80;;;24.10;57.70;;;;;;4494684;31;20069;-71
2022/07/14 00:58:21;;;;;;;2.22;0.88;;;24.10;57.70;;;;;;4494555;31;20084;-71
2022/07/14 01:00:47;;;;;;;4.70;0.88;;;24.10;57.70;;;;;;4494302;31;20093;-73
2022/07/14 01:03:13;;;;;;;2.35;0.80;;;24.10;57.70;;;;;;4494516;31;20179;-71
2022/07/14 01:05:39;;;;;;;3.28;0.90;;;24.10;57.70;;;;;;4494293;31;20418;-71
2022/07/14 01:08:05;;;;;;;3.08;1.00;;;24.10;57.70;;;;;;4494251;31;20422;-70
2022/07/14 01:10:31;;;;;;;1.95;0.75;;;24.10;57.70;;;;;;4493963;31;20069;-71
2022/07/14 01:13:02;;;;;;;2.05;0.88;;;24.10;57.70;;;;;;4493973;31;20406;-71
2022/07/14 01:15:28;;;;;;;3.83;1.08;;;24.10;57.70;;;;;;4494154;31;20084;-70
2022/07/14 01:17:55;;;;;;;5.15;0.90;;;24.10;57.70;;;;;;4479855;31;20073;-70
2022/07/14 01:20:23;;;;;;;2.42;0.80;;;24.10;57.80;;;;;;4494315;31;20064;-70
2022/07/14 01:22:49;;;;;;;3.83;0.85;;;24.10;57.80;;;;;;4494007;31;20096;-70
2022/07/14 01:25:19;;;;;;;3.05;0.88;;;24.00;57.80;;;;;;4479993;31;20524;-70
2022/07/14 01:27:45;;;;;;;2.00;0.80;;;24.10;57.90;;;;;;4493819;31;20080;-70
2022/07/14 01:30:12;;;;;;;1.63;0.63;;;24.00;57.90;;;;;;4494069;31;20070;-70
2022/07/14 01:32:37;;;;;;;2.28;0.77;;;24.10;58.00;;;;;;4494222;31;20095;-70
2022/07/14 01:35:05;;;;;;;3.50;0.90;;;24.00;58.00;;;;;;4494138;31;20198;-70
2022/07/14 01:37:32;;;;;;;3.22;0.82;;;24.00;58.00;;;;;;4494018;31;20073;-70
2022/07/14 01:39:58;;;;;;;1.75;0.73;;;24.00;58.00;;;;;;4493713;31;20410;-70
2022/07/14 01:42:24;;;;;;;1.98;0.88;;;24.00;58.00;;;;;;4493557;31;20065;-70
2022/07/14 01:44:49;;;;;;;3.20;0.75;;;24.00;58.10;;;;;;4493660;31;20076;-71
2022/07/14 01:47:15;;;;;;;1.77;0.82;;;24.00;58.10;;;;;;4494040;31;20148;-70
2022/07/14 01:49:41;;;;;;;3.50;1.00;;;24.00;58.10;;;;;;4493556;31;20496;-70
2022/07/14 01:52:07;;;;;;;3.45;0.88;;;24.00;58.10;;;;;;4493845;31;20069;-70
2022/07/14 01:54:33;;;;;;;2.38;0.82;;;24.00;59.00;;;;;;4466483;31;20514;-70
2022/07/14 01:56:59;;;;;;;1.90;0.82;;;24.00;58.10;;;;;;4493428;31;20065;-71
2022/07/14 01:59:25;;;;;;;2.35;0.80;;;24.00;58.10;;;;;;4493563;31;20166;-70
2022/07/14 02:01:51;;;;;;;1.80;0.80;;;24.00;58.20;;;;;;4493365;31;20089;-71
2022/07/14 02:04:19;;;;;;;2.17;0.75;;;24.00;58.20;;;;;;4493306;31;20054;-70
2022/07/14 02:06:53;;;;;;;2.53;0.73;;;24.00;58.20;;;;;;4493514;31;20222;-71
2022/07/14 02:09:21;;;;;;;2.75;0.80;;;24.00;58.30;;;;;;4493298;31;20528;-71
2022/07/14 02:14:33;;;;;;;2.88;0.70;;;24.00;58.30;;;;;;4493524;31;20107;-70
2022/07/14 02:16:59;;;;;;;1.30;0.60;;;23.90;58.30;;;;;;4493398;31;20069;-70
2022/07/14 02:19:26;;;;;;;1.65;0.52;;;23.90;58.40;;;;;;4479028;31;20092;-70
2022/07/14 02:21:54;;;;;;;1.65;0.70;;;23.90;59.30;;;;;;4493191;31;20223;-70
2022/07/14 02:24:22;;;;;;;1.83;0.60;;;23.90;58.40;;;;;;4493365;31;20190;-70
2022/07/14 02:26:51;;;;;;;1.77;0.68;;;23.90;58.30;;;;;;4492967;31;20085;-71
2022/07/14 02:29:18;;;;;;;2.60;0.73;;;23.90;58.40;;;;;;4493203;31;20223;-70
2022/07/14 02:31:45;;;;;;;1.67;0.60;;;23.90;58.40;;;;;;4492992;31;20549;-70
2022/07/14 02:34:11;;;;;;;2.00;0.55;;;23.90;58.40;;;;;;4493239;31;20077;-71
2022/07/14 02:36:39;;;;;;;2.65;0.77;;;23.90;58.50;;;;;;4493024;31;20101;-71
2022/07/14 02:39:05;;;;;;;1.33;0.50;;;23.90;58.50;;;;;;4493084;31;20498;-71
2022/07/14 02:41:31;;;;;;;2.08;0.65;;;23.90;58.50;;;;;;4492697;31;20072;-70
2022/07/14 02:43:56;;;;;;;1.75;0.68;;;23.90;58.50;;;;;;4492697;31;20074;-70
2022/07/14 02:46:23;;;;;;;1.27;0.60;;;23.90;58.50;;;;;;4492935;31;20080;-70
2022/07/14 02:48:49;;;;;;;1.55;0.55;;;23.90;58.50;;;;;;4492828;31;20138;-70
2022/07/14 02:51:15;;;;;;;1.20;0.40;;;23.90;58.50;;;;;;4492747;31;20548;-70
2022/07/14 02:53:41;;;;;;;3.05;0.80;;;23.80;58.60;;;;;;4492962;31;20093;-70
2022/07/14 02:56:07;;;;;;;2.25;0.68;;;23.80;58.60;;;;;;4493545;31;20081;-70
2022/07/14 02:58:34;;;;;;;1.88;0.82;;;23.80;58.60;;;;;;4480548;31;20469;-70
2022/07/14 03:01:03;;;;;;;0.85;0.52;;;23.80;58.60;;;;;;4479595;31;20084;-71
2022/07/14 03:03:29;;;;;;;2.03;0.70;;;23.80;58.60;;;;;;4494124;31;20083;-70
2022/07/14 03:05:54;;;;;;;2.00;0.70;;;23.80;58.60;;;;;;4479740;31;20069;-72
2022/07/14 03:08:20;;;;;;;1.52;0.73;;;23.80;58.70;;;;;;4495771;31;20174;-71
2022/07/14 03:10:46;;;;;;;3.05;0.88;;;23.80;58.70;;;;;;4493027;31;20210;-71
2022/07/14 03:13:12;;;;;;;1.80;0.52;;;23.80;58.70;;;;;;4491890;31;20473;-71
2022/07/14 03:15:38;;;;;;;3.40;0.75;;;23.80;58.80;;;;;;4491901;31;20246;-70
2022/07/14 03:18:04;;;;;;;4.32;1.13;;;23.80;58.80;;;;;;4491786;31;20231;-71
2022/07/14 03:20:30;;;;;;;4.88;0.70;;;23.80;58.70;;;;;;4492149;31;20073;-70
2022/07/14 03:22:56;;;;;;;3.78;0.70;;;23.80;58.70;;;;;;4491958;31;20165;-70
2022/07/14 03:25:22;;;;;;;2.78;0.50;;;23.70;58.70;;;;;;4492406;31;20406;-71
2022/07/14 03:27:48;;;;;;;2.80;0.70;;;23.70;58.80;;;;;;4492206;31;20088;-71
2022/07/14 03:30:15;;;;;;;2.60;0.50;;;23.70;58.80;;;;;;4491826;31;20076;-71
2022/07/14 03:32:41;;;;;;;2.90;0.60;;;23.80;58.90;;;;;;4492118;31;20072;-69
2022/07/14 03:35:08;;;;;;;0.77;0.43;;;23.70;58.90;;;;;;4491843;31;20112;-71
2022/07/14 03:37:35;;;;;;;3.97;0.70;;;23.70;58.90;;;;;;4492111;31;20083;-71
2022/07/14 03:40:03;;;;;;;3.47;0.95;;;23.70;58.90;;;;;;4491893;31;20073;-71
2022/07/14 03:42:29;;;;;;;3.05;0.65;;;23.70;58.90;;;;;;4491624;31;20606;-71
2022/07/14 03:44:57;;;;;;;1.45;0.52;;;23.70;58.90;;;;;;4477687;31;20418;-71
2022/07/14 03:47:23;;;;;;;5.53;0.80;;;23.70;58.90;;;;;;4492051;31;20076;-72
2022/07/14 03:49:49;;;;;;;2.45;0.60;;;23.70;59.00;;;;;;4491831;31;20430;-71
2022/07/14 03:52:15;;;;;;;0.80;0.40;;;23.70;58.90;;;;;;4491650;31;20073;-71
2022/07/14 03:54:45;;;;;;;2.05;0.70;;;23.70;59.10;;;;;;4491925;31;20085;-71
2022/07/14 03:57:12;;;;;;;1.63;0.60;;;23.70;59.00;;;;;;4491650;31;20077;-71
2022/07/14 03:59:40;;;;;;;1.75;0.65;;;23.70;59.10;;;;;;4491965;31;20613;-71
2022/07/14 04:02:12;;;;;;;1.20;0.40;;;23.70;59.10;;;;;;4491538;31;20127;-71
2022/07/14 04:04:39;;;;;;;1.30;0.40;;;23.60;59.00;;;;;;4491835;31;20113;-71
2022/07/14 04:07:07;;;;;;;1.25;0.60;;;23.60;59.00;;;;;;4491560;31;20077;-71
2022/07/14 04:09:33;;;;;;;1.85;0.47;;;23.60;59.00;;;;;;4491819;31;20129;-71
2022/07/14 04:11:59;;;;;;;1.30;0.35;;;23.60;59.00;;;;;;4491167;31;20239;-71
2022/07/14 04:14:25;;;;;;;4.85;0.57;;;23.60;59.00;;;;;;4491596;31;20081;-71
2022/07/14 04:16:51;;;;;;;1.33;0.50;;;23.60;59.00;;;;;;4491658;31;20105;-71
2022/07/14 04:19:17;;;;;;;0.88;0.20;;;23.60;59.10;;;;;;4491441;31;20538;-71
2022/07/14 04:21:43;;;;;;;2.30;0.50;;;23.60;59.10;;;;;;4491406;31;20080;-71
2022/07/14 04:24:09;;;;;;;2.35;0.55;;;23.60;60.00;;;;;;4491477;31;20207;-71
2022/07/14 04:26:40;;;;;;;1.35;0.60;;;23.60;59.10;;;;;;4476928;31;20380;-71
2022/07/14 04:29:07;;;;;;;1.67;0.73;;;23.60;59.10;;;;;;4491650;31;20211;-71
2022/07/14 04:31:34;;;;;;;1.20;0.43;;;23.60;59.10;;;;;;4491233;31;20629;-71
2022/07/14 04:34:00;;;;;;;1.88;0.70;;;23.60;59.20;;;;;;4491415;31;20073;-71
2022/07/14 04:36:26;;;;;;;0.90;0.40;;;23.60;59.10;;;;;;4491305;31;20254;-71
2022/07/14 04:38:53;;;;;;;2.45;0.52;;;23.60;59.20;;;;;;4491409;32;20083;-71
2022/07/14 04:41:19;;;;;;;1.50;0.70;;;23.60;59.20;;;;;;4491062;32;20177;-71
2022/07/14 04:43:45;;;;;;;2.10;0.55;;;23.60;59.30;;;;;;4491122;32;20191;-71
2022/07/14 04:46:11;;;;;;;0.65;0.43;;;23.60;59.30;;;;;;4491535;32;20430;-71
2022/07/14 04:54:06;;;;;;;1.67;0.43;;;23.50;59.20;;;;;;4491320;32;20069;-71
2022/07/14 04:56:32;;;;;;;1.50;0.47;;;23.50;59.30;;;;;;4491344;32;20097;-71
2022/07/14 04:58:58;;;;;;;0.80;0.45;;;23.50;59.70;;;;;;4491150;32;20420;-71
2022/07/14 05:01:24;;;;;;;1.95;0.50;;;23.50;59.30;;;;;;4477359;32;20069;-71
2022/07/14 05:03:50;;;;;;;1.38;0.60;;;23.50;59.30;;;;;;4491115;32;20100;-71
2022/07/14 05:06:17;;;;;;;1.50;0.43;;;23.50;59.30;;;;;;4491106;32;20069;-71
2022/07/14 05:08:43;;;;;;;1.67;0.40;;;23.50;59.30;;;;;;4491055;32;20481;-71
2022/07/14 05:11:08;;;;;;;1.10;0.50;;;23.50;59.40;;;;;;4490890;32;20080;-71
2022/07/14 05:13:34;;;;;;;1.45;0.60;;;23.50;59.40;;;;;;4491127;32;20065;-71
2022/07/14 05:16:00;;;;;;;0.77;0.40;;;23.50;59.40;;;;;;4490906;32;20081;-71
2022/07/14 05:18:26;;;;;;;0.63;0.38;;;23.50;59.40;;;;;;4491088;32;20116;-71
2022/07/14 05:20:52;;;;;;;1.92;0.57;;;23.50;59.40;;;;;;4491139;32;20468;-71
2022/07/14 05:23:18;;;;;;;2.08;0.47;;;23.50;59.40;;;;;;4490789;32;20099;-71
2022/07/14 05:25:44;;;;;;;1.77;0.50;;;23.50;59.40;;;;;;4491253;32;20502;-71
2022/07/14 05:28:10;;;;;;;0.95;0.40;;;23.50;59.40;;;;;;4490934;32;20498;-71
2022/07/14 05:30:36;;;;;;;1.00;0.40;;;23.50;59.40;;;;;;4491092;32;20234;-71
2022/07/14 05:33:02;;;;;;;2.25;0.60;;;23.50;59.40;;;;;;4490924;32;20077;-71
2022/07/14 05:35:28;;;;;;;0.88;0.28;;;23.60;59.50;;;;;;4491077;32;20093;-71
2022/07/14 05:37:55;;;;;;;1.65;0.50;;;23.60;59.40;;;;;;4477648;31;20577;-71
2022/07/14 05:40:21;;;;;;;1.50;0.38;;;23.60;59.40;;;;;;4493665;31;20532;-71
2022/07/14 05:42:47;;;;;;;0.70;0.40;;;23.50;59.40;;;;;;4493581;31;20077;-71
2022/07/14 05:45:13;;;;;;;1.65;0.50;;;23.60;59.40;;;;;;4493554;31;20289;-71
2022/07/14 05:47:41;;;;;;;1.38;0.45;;;23.60;59.30;;;;;;4493823;31;20072;-71
2022/07/14 05:50:08;;;;;;;1.75;0.50;;;23.60;59.40;;;;;;4493542;31;20132;-71
2022/07/14 05:52:33;;;;;;;1.48;0.40;;;23.60;59.40;;;;;;4493631;31;20077;-71
2022/07/14 05:55:00;;;;;;;1.33;0.43;;;23.60;59.30;;;;;;4493678;31;20050;-71
2022/07/14 05:57:26;;;;;;;1.20;0.45;;;23.60;59.30;;;;;;4493571;31;20073;-71
2022/07/14 05:59:52;;;;;;;0.80;0.30;;;23.60;59.30;;;;;;4493621;31;20100;-71
2022/07/14 06:02:18;;;;;;;2.00;0.40;;;23.70;59.30;;;;;;4493394;31;20194;-71
2022/07/14 06:04:44;;;;;;;1.85;0.52;;;23.70;59.30;;;;;;4493633;31;20091;-71
2022/07/14 06:07:10;;;;;;;1.27;0.35;;;23.70;59.30;;;;;;4493342;31;20402;-72
2022/07/14 06:09:40;;;;;;;0.77;0.40;;;23.70;59.20;;;;;;4493707;31;20085;-71
2022/07/14 06:12:07;;;;;;;1.42;0.35;;;23.70;59.30;;;;;;4492607;31;20506;-70
2022/07/14 06:14:33;;;;;;;1.27;0.35;;;23.80;59.30;;;;;;4493044;31;20081;-69
2022/07/14 06:16:59;;;;;;;2.10;0.70;;;23.80;59.30;;;;;;4492752;31;20225;-70
2022/07/14 06:19:25;;;;;;;2.47;0.57;;;23.80;58.90;;;;;;4478733;31;20289;-69
2022/07/14 06:21:51;;;;;;;2.88;0.68;;;23.80;58.10;;;;;;4493083;31;20283;-69
2022/07/14 06:24:16;;;;;;;4.32;0.70;;;23.80;57.80;;;;;;4493175;31;20482;-69
2022/07/14 06:26:44;;;;;;;4.15;0.75;;;23.80;57.40;;;;;;4490453;31;20076;-69
2022/07/14 06:29:10;;;;;;;3.83;0.75;;;23.80;57.10;;;;;;4493150;31;20595;-70
2022/07/14 06:31:36;;;;;;;5.20;0.60;;;23.80;56.80;;;;;;4492401;31;20136;-70
2022/07/14 06:34:03;;;;;;;3.65;0.93;;;23.80;56.70;;;;;;4492984;31;20077;-71
2022/07/14 06:36:30;;;;;;;3.08;0.52;;;23.80;56.60;;;;;;4492747;31;20496;-71
2022/07/14 06:38:57;;;;;;;4.07;0.90;;;23.80;56.50;;;;;;4478782;31;20065;-70
2022/07/14 06:41:24;;;;;;;3.53;0.85;;;23.90;56.50;;;;;;4478563;31;20061;-71
2022/07/14 06:43:50;;;;;;;5.28;0.60;;;23.90;57.10;;;;;;4492695;31;20418;-70
2022/07/14 06:46:16;;;;;;;3.85;0.68;;;23.90;56.00;;;;;;4492857;31;20069;-70
2022/07/14 06:48:43;;;;;;;3.33;0.60;;;23.80;55.70;;;;;;4491780;31;20081;-70
2022/07/14 06:51:09;;;;;;;4.68;0.90;;;23.80;55.70;;;;;;4492274;31;20083;-70
2022/07/14 06:53:35;;;;;;;2.75;0.70;;;23.90;55.70;;;;;;4492622;31;20528;-70
2022/07/14 06:56:00;;;;;;;2.78;0.77;;;23.90;56.50;;;;;;4492785;31;20073;-70
2022/07/14 06:58:26;;;;;;;1.73;0.47;;;23.90;55.50;;;;;;4492642;31;20585;-70
2022/07/14 07:00:52;;;;;;;3.10;0.70;;;23.80;55.20;;;;;;4489980;31;20081;-71
2022/07/14 07:03:18;;;;;;;3.72;0.65;;;23.80;55.00;;;;;;4492613;31;20087;-71
2022/07/14 07:08:29;;;;;;;4.47;0.68;;;23.80;54.70;;;;;;4492388;31;20104;-70
2022/07/14 07:10:56;;;;;;;5.60;0.60;;;23.80;54.50;;;;;;4492034;31;20510;-70
2022/07/14 07:13:23;;;;;;;3.88;0.75;;;23.70;54.20;;;;;;4492238;31;20079;-70
2022/07/14 07:15:49;;;;;;;1.73;0.47;;;23.70;54.10;;;;;;4492175;31;20157;-70
2022/07/14 07:18:14;;;;;;;1.60;0.40;;;23.70;53.90;;;;;;4492273;31;20154;-70
2022/07/14 07:20:40;;;;;;;4.57;0.80;;;23.70;53.90;;;;;;4492173;31;20090;-70
2022/07/14 07:23:06;;;;;;;1.70;0.45;;;23.70;53.80;;;;;;4492230;31;20073;-70
2022/07/14 07:25:32;;;;;;;1.95;0.40;;;23.80;53.80;;;;;;4491813;31;20564;-70
2022/07/14 07:28:01;;;;;;;2.10;0.50;;;23.80;53.60;;;;;;4491890;31;20069;-70
2022/07/14 07:30:27;;;;;;;3.05;0.43;;;23.80;53.60;;;;;;4491468;31;20125;-69
2022/07/14 07:32:53;;;;;;;3.50;0.30;;;23.80;53.50;;;;;;4492082;31;20050;-69
2022/07/14 07:35:19;;;;;;;3.30;0.43;;;23.90;53.50;;;;;;4491562;31;20395;-70
2022/07/14 07:37:46;;;;;;;7.07;0.77;;;23.90;53.50;;;;;;4491798;31;20505;-70
2022/07/14 07:40:12;;;;;;;4.80;0.68;;;23.90;53.70;;;;;;4491896;31;20508;-71
2022/07/14 07:42:39;;;;;;;2.05;0.43;;;23.90;53.70;;;;;;4491753;31;20088;-70
2022/07/14 07:45:05;;;;;;;4.30;0.73;;;24.00;53.80;;;;;;4491532;31;20422;-70
2022/07/14 07:47:31;;;;;;;3.40;0.50;;;24.00;53.60;;;;;;4491704;31;20577;-71
2022/07/14 07:49:57;;;;;;;2.33;0.45;;;24.00;53.50;;;;;;4491734;31;20151;-70
2022/07/14 07:52:23;;;;;;;2.70;0.47;;;24.00;53.60;;;;;;4477605;31;20131;-69
2022/07/14 07:54:49;;;;;;;3.35;0.47;;;24.00;53.50;;;;;;4491497;31;20506;-69
2022/07/14 07:57:15;;;;;;;1.75;0.50;;;24.00;53.50;;;;;;4477034;31;20080;-69
2022/07/14 07:59:41;;;;;;;4.10;0.50;;;24.00;53.50;;;;;;4491369;31;20080;-68
2022/07/14 08:02:07;;;;;;;1.20;0.30;;;24.00;53.40;;;;;;4484328;31;20116;-70
2022/07/14 08:04:33;;;;;;;5.82;0.77;;;24.00;53.30;;;;;;4491296;31;20093;-70
2022/07/14 08:06:59;;;;;;;4.78;0.52;;;24.00;53.20;;;;;;4489136;31;20104;-70
2022/07/14 08:09:25;;;;;;;2.20;0.50;;;24.00;54.10;;;;;;4490187;31;20093;-70
2022/07/14 08:11:51;;;;;;;2.70;0.60;;;24.00;53.30;;;;;;4491099;31;20154;-70
2022/07/14 08:17:01;;;;;;;4.57;0.75;;;24.00;53.20;;;;;;4490906;31;20526;-69
2022/07/14 08:19:28;;;;;;;2.95;0.30;;;24.00;53.00;;;;;;4491193;31;20254;-69
2022/07/14 08:21:54;;;;;;;2.75;0.68;;;24.00;52.90;;;;;;4491268;31;20080;-70
2022/07/14 08:24:20;;;;;;;3.33;0.73;;;24.00;52.70;;;;;;4491469;31;20603;-69
2022/07/14 08:26:47;;;;;;;3.78;0.40;;;24.00;52.80;;;;;;4491153;31;20588;-70
2022/07/14 08:29:14;;;;;;;2.13;0.40;;;24.00;52.90;;;;;;4491096;31;20089;-73
2022/07/14 08:31:40;;;;;;;3.75;0.52;;;24.00;53.10;;;;;;4491247;31;20085;-70
2022/07/14 08:34:06;;;;;;;1.90;0.70;;;24.00;53.30;;;;;;4491332;31;20136;-70
2022/07/14 08:36:32;;;;;;;2.45;0.60;;;24.00;53.60;;;;;;4491297;31;20088;-70
2022/07/14 08:39:00;;;;;;;3.85;0.40;;;24.00;54.70;;;;;;4491301;31;20411;-70
2022/07/14 08:41:26;;;;;;;2.78;0.52;;;23.90;53.90;;;;;;4491155;32;20077;-70
2022/07/14 08:43:53;;;;;;;1.75;0.63;;;23.90;54.10;;;;;;4486570;32;20430;-68
2022/07/14 08:46:19;;;;;;;3.15;0.50;;;23.90;54.20;;;;;;4485497;32;20089;-70
2022/07/14 08:48:47;;;;;;;1.23;0.40;;;23.90;54.30;;;;;;4489773;32;20235;-70
2022/07/14 08:51:13;;;;;;;1.25;0.20;;;23.90;54.40;;;;;;4491173;32;20089;-70
2022/07/14 08:53:43;;;;;;;1.83;0.50;;;23.90;54.50;;;;;;4491173;32;20089;-70
2022/07/14 08:56:09;;;;;;;2.08;0.43;;;23.90;54.50;;;;;;4491070;32;20096;-70
2022/07/14 08:58:35;;;;;;;2.35;0.73;;;23.90;54.60;;;;;;4491164;32;20498;-70
2022/07/14 09:01:01;;;;;;;2.33;0.40;;;23.90;54.70;;;;;;4491095;32;20073;-70
2022/07/14 09:03:26;;;;;;;1.95;0.57;;;23.90;54.70;;;;;;4491251;32;20559;-70
2022/07/14 09:05:53;;;;;;;2.67;0.25;;;23.90;54.80;;;;;;4491083;32;20436;-70
2022/07/14 09:08:19;;;;;;;1.55;0.40;;;23.90;54.90;;;;;;4491071;32;20108;-70
2022/07/14 09:10:46;;;;;;;1.95;0.40;;;23.90;54.90;;;;;;4490803;32;20092;-70
2022/07/14 09:13:13;;;;;;;1.83;0.50;;;23.90;55.00;;;;;;4492180;31;20090;-70
2022/07/14 09:15:46;;;;;;;2.25;0.47;;;23.90;55.00;;;;;;4494151;31;20073;-70
2022/07/14 09:18:26;;;;;;;1.33;0.32;;;23.90;55.10;;;;;;4480664;31;20057;-71
2022/07/14 09:20:54;;;;;;;1.75;0.35;;;23.90;55.20;;;;;;4494326;31;20097;-69
2022/07/14 09:23:31;;;;;;;3.47;0.55;;;23.90;55.20;;;;;;4493921;31;20088;-70
2022/07/14 09:26:18;;;;;;;1.85;0.30;;;23.90;55.30;;;;;;4494038;31;20101;-69
2022/07/14 09:28:46;;;;;;;2.90;0.47;;;23.90;55.40;;;;;;4484168;31;20084;-69
2022/07/14 09:31:23;;;;;;;2.03;0.43;;;23.90;55.40;;;;;;4493912;31;20076;-69
2022/07/14 09:33:51;;;;;;;1.15;0.32;;;23.90;55.50;;;;;;4483732;31;20065;-70
2022/07/14 09:36:28;;;;;;;2.35;0.40;;;23.90;55.50;;;;;;4494270;31;20083;-70
2022/07/14 09:39:06;;;;;;;1.40;0.43;;;24.00;55.60;;;;;;4484246;31;20139;-69
2022/07/14 09:41:37;;;;;;;1.98;0.25;;;23.90;55.60;;;;;;4493674;31;20091;-70
2022/07/14 09:44:17;;;;;;;1.25;0.30;;;24.00;55.60;;;;;;4494040;31;20178;-70
2022/07/14 09:46:56;;;;;;;1.40;0.47;;;24.00;55.80;;;;;;4493682;31;20418;-69
2022/07/14 09:49:25;;;;;;;1.58;0.30;;;24.00;55.80;;;;;;4480304;31;20073;-69
2022/07/14 09:51:57;;;;;;;1.70;0.30;;;24.00;55.90;;;;;;4493538;31;20072;-70
2022/07/14 09:54:45;;;;;;;1.70;0.50;;;24.00;55.90;;;;;;4493890;31;20069;-69
2022/07/14 09:57:14;;;;;;;1.08;0.32;;;24.00;56.00;;;;;;4493607;31;20403;-69
2022/07/14 10:00:12;;;;;;;0.80;0.30;;;24.00;56.10;;;;;;4493760;31;20158;-69
2022/07/14 10:02:41;;;;;;;1.27;0.38;;;24.00;56.10;;;;;;4483125;31;20124;-69
2022/07/14 10:05:09;;;;;;;1.48;0.20;;;24.00;56.10;;;;;;4493542;31;20635;-70
2022/07/14 10:07:38;;;;;;;1.25;0.30;;;24.00;56.10;;;;;;4493291;31;20091;-70
2022/07/14 10:10:12;;;;;;;1.55;0.40;;;24.00;56.20;;;;;;4493482;31;20410;-69
2022/07/14 10:12:41;;;;;;;1.25;0.40;;;24.00;56.20;;;;;;4493130;31;20068;-69
2022/07/14 10:15:09;;;;;;;0.95;0.35;;;24.00;56.20;;;;;;4493533;31;20206;-69
2022/07/14 10:17:37;;;;;;;1.20;0.30;;;24.00;56.20;;;;;;4493218;31;20084;-69
2022/07/14 10:20:16;;;;;;;1.45;0.52;;;24.00;56.20;;;;;;4478946;31;20089;-69
2022/07/14 10:22:43;;;;;;;3.20;0.40;;;24.00;56.20;;;;;;4493453;31;20128;-69
2022/07/14 10:25:10;;;;;;;0.55;0.20;;;24.00;56.20;;;;;;4478757;31;20409;-69
2022/07/14 10:27:39;;;;;;;3.03;0.55;;;24.00;56.30;;;;;;4492549;31;20450;-69
2022/07/14 10:30:05;;;;;;;1.08;0.25;;;24.00;56.30;;;;;;4478654;31;20116;-69
2022/07/14 10:32:53;;;;;;;2.92;0.60;;;24.00;56.40;;;;;;4493133;31;20525;-69
2022/07/14 10:35:30;;;;;;;1.52;0.22;;;24.00;56.40;;;;;;4493018;31;20112;-70
2022/07/14 10:38:23;;;;;;;2.78;0.45;;;24.00;57.40;;;;;;4493253;31;20210;-69
2022/07/14 10:41:05;;;;;;;2.95;0.40;;;24.00;56.50;;;;;;4483157;31;20073;-69
2022/07/14 10:44:08;;;;;;;2.53;0.38;;;24.00;56.50;;;;;;4492855;31;20128;-69
2022/07/14 10:46:43;;;;;;;1.13;0.20;;;24.00;56.30;;;;;;4492744;31;20076;-70
2022/07/14 10:49:11;;;;;;;3.17;0.32;;;24.00;56.40;;;;;;4493256;31;20484;-70
2022/07/14 10:51:46;;;;;;;2.22;0.40;;;24.00;56.40;;;;;;4492705;31;20190;-68
2022/07/14 10:54:16;;;;;;;4.32;0.50;;;24.00;56.30;;;;;;4489997;31;20223;-69
2022/07/14 10:56:44;;;;;;;1.52;0.30;;;24.00;56.20;;;;;;4494608;31;20215;-69
2022/07/14 10:59:25;;;;;;;1.58;0.32;;;24.00;56.10;;;;;;4492114;31;20164;-68
2022/07/14 11:02:12;;;;;;;6.65;0.45;;;24.00;56.00;;;;;;4478508;31;20105;-69
2022/07/14 11:04:59;;;;;;;3.88;0.40;;;24.00;56.10;;;;;;4492759;31;20199;-69
2022/07/14 11:07:38;;;;;;;2.00;0.55;;;24.00;55.90;;;;;;4492386;31;20286;-69
2022/07/14 11:10:19;;;;;;;1.05;0.30;;;24.00;55.90;;;;;;4492547;31;20073;-69
2022/07/14 11:13:03;;;;;;;2.15;0.30;;;24.00;55.90;;;;;;4490713;31;20057;-69
2022/07/14 11:15:41;;;;;;;4.82;0.70;;;24.00;56.00;;;;;;4492249;31;20077;-70
2022/07/14 11:18:21;;;;;;;2.00;0.50;;;24.00;56.10;;;;;;4492136;31;20183;-69
2022/07/14 11:20:59;;;;;;;1.40;0.30;;;24.00;56.20;;;;;;4492409;31;20092;-70
2022/07/14 11:23:29;;;;;;;2.35;0.52;;;24.00;56.20;;;;;;4492125;31;20085;-70
2022/07/14 11:25:57;;;;;;;1.58;0.55;;;24.00;56.20;;;;;;4492533;31;20079;-70
2022/07/14 11:28:32;;;;;;;4.43;0.80;;;24.00;56.20;;;;;;4492014;31;20632;-70
2022/07/14 11:31:17;;;;;;;3.70;0.60;;;24.00;56.20;;;;;;4491789;31;20117;-70
2022/07/14 11:36:36;;;;;;;2.60;0.70;;;24.10;56.20;;;;;;4491409;31;20100;-69
2022/07/14 11:39:16;;;;;;;4.45;0.60;;;24.10;56.00;;;;;;4491828;31;20088;-69
2022/07/14 11:41:45;;;;;;;2.28;0.50;;;24.10;55.90;;;;;;4491729;31;20170;-70
2022/07/14 11:44:43;;;;;;;4.70;0.70;;;24.10;55.90;;;;;;4492078;31;20203;-69
2022/07/14 11:47:17;;;;;;;5.60;0.70;;;24.10;56.00;;;;;;4491429;31;20091;-69
2022/07/14 11:50:03;;;;;;;1.50;0.52;;;24.10;55.70;;;;;;4491890;31;20521;-69
2022/07/14 11:52:36;;;;;;;3.42;0.50;;;24.10;55.80;;;;;;4492084;31;20065;-69
2022/07/14 11:55:06;;;;;;;1.77;0.40;;;24.10;55.70;;;;;;4491600;31;20083;-69
2022/07/14 11:57:32;;;;;;;3.63;0.70;;;24.10;55.70;;;;;;4491062;31;20068;-70
2022/07/14 12:00:08;;;;;;;2.40;0.57;;;24.10;55.60;;;;;;4491675;31;20120;-70
2022/07/14 12:02:59;;;;;;;2.60;0.60;;;24.20;55.50;;;;;;4491750;31;20136;-69
2022/07/14 12:05:26;;;;;;;2.60;0.50;;;24.10;55.40;;;;;;4487584;31;20093;-69
2022/07/14 12:07:53;;;;;;;2.50;0.57;;;24.20;55.40;;;;;;4491692;31;20510;-69
2022/07/14 12:10:42;;;;;;;2.15;0.60;;;24.20;55.30;;;;;;4491323;31;20073;-70
2022/07/14 12:13:09;;;;;;;1.92;0.60;;;24.20;55.10;;;;;;4480883;31;20109;-69
2022/07/14 12:15:36;;;;;;;3.38;0.68;;;24.20;55.30;;;;;;4489698;31;20400;-69
2022/07/14 12:18:04;;;;;;;1.27;0.50;;;24.20;55.40;;;;;;4491527;31;20073;-69
2022/07/14 12:20:41;;;;;;;3.92;0.60;;;24.20;55.20;;;;;;4491321;31;20065;-69
2022/07/14 12:23:07;;;;;;;2.33;0.50;;;24.20;54.90;;;;;;4483219;31;20139;-69
2022/07/14 12:25:58;;;;;;;3.05;0.73;;;24.20;55.00;;;;;;4491598;31;20623;-69
2022/07/14 12:28:25;;;;;;;1.42;0.50;;;24.30;55.00;;;;;;4491375;31;20498;-69
2022/07/14 12:30:59;;;;;;;4.47;0.60;;;24.30;54.90;;;;;;4491162;31;20089;-69
2022/07/14 12:33:32;;;;;;;2.65;0.52;;;24.30;54.60;;;;;;4491315;31;20235;-70
2022/07/14 12:36:00;;;;;;;3.08;0.68;;;24.30;54.80;;;;;;4491799;31;20172;-69
2022/07/14 12:38:27;;;;;;;2.75;0.73;;;24.30;54.40;;;;;;4491421;31;20085;-69
2022/07/14 12:40:59;;;;;;;2.58;0.90;;;24.30;54.30;;;;;;4491585;31;20073;-69
2022/07/14 12:43:26;;;;;;;3.15;0.82;;;24.40;54.30;;;;;;4491325;32;20136;-69
2022/07/14 12:46:11;;;;;;;3.30;1.02;;;24.40;54.30;;;;;;4487077;32;20069;-69
2022/07/14 12:48:49;;;;;;;2.20;0.77;;;24.40;54.30;;;;;;4480383;31;20136;-68
2022/07/14 12:51:30;;;;;;;4.75;0.80;;;24.40;54.30;;;;;;4494536;31;20242;-68
2022/07/14 12:54:01;;;;;;;2.65;0.65;;;24.40;54.20;;;;;;4494436;31;20536;-69
2022/07/14 12:56:32;;;;;;;1.85;0.60;;;24.40;54.20;;;;;;4494423;31;20132;-69
2022/07/14 12:59:00;;;;;;;4.82;0.77;;;24.40;54.00;;;;;;4494397;31;20636;-69
2022/07/14 13:01:27;;;;;;;4.15;0.60;;;24.40;54.00;;;;;;4494005;31;20298;-68
2022/07/14 13:04:03;;;;;;;3.42;0.65;;;24.40;54.00;;;;;;4494249;31;20231;-68
2022/07/14 13:06:43;;;;;;;2.15;0.50;;;24.40;53.90;;;;;;4494106;31;20124;-69
2022/07/14 13:09:14;;;;;;;3.70;0.75;;;24.40;53.90;;;;;;4494225;31;20073;-69
2022/07/14 13:11:41;;;;;;;3.13;0.90;;;24.40;53.90;;;;;;4493628;31;20093;-69
2022/07/14 13:14:08;;;;;;;1.77;0.47;;;24.40;53.90;;;;;;4493952;31;20172;-69
2022/07/14 13:16:35;;;;;;;5.32;0.73;;;24.40;53.80;;;;;;4493963;31;20092;-68
2022/07/14 13:19:24;;;;;;;5.25;0.73;;;24.40;53.70;;;;;;4479796;31;20061;-68
2022/07/14 13:22:02;;;;;;;3.88;0.60;;;24.40;53.60;;;;;;4483668;31;20077;-68
2022/07/14 13:24:36;;;;;;;3.00;0.68;;;24.50;53.50;;;;;;4494233;31;20506;-70